createdAt,value
2023-03-26T00:03:55.309Z,6.61
2023-03-26T00:08:58.571Z,6.60
2023-03-26T00:14:02.997Z,6.57
2023-03-26T00:19:06.158Z,6.52
2023-03-26T00:24:15.578Z,6.47
2023-03-26T00:29:18.744Z,6.43
2023-03-26T00:34:23.056Z,6.37
2023-03-26T00:39:26.442Z,6.29
2023-03-26T00:44:31.055Z,6.22
2023-03-26T00:49:34.013Z,6.17
2023-03-26T00:54:37.009Z,6.13
2023-03-26T00:59:40.533Z,6.10
2023-03-26T01:04:59.420Z,6.08
2023-03-26T01:10:02.309Z,6.05
2023-03-26T01:15:08.296Z,6.04
2023-03-26T01:20:20.258Z,6.08
2023-03-26T01:25:23.219Z,6.10
2023-03-26T01:30:41.890Z,6.10
2023-03-26T01:36:00.005Z,6.11
2023-03-26T01:41:18.748Z,6.11
2023-03-26T01:46:23.051Z,6.08
2023-03-26T01:51:39.795Z,6.05
2023-03-26T01:57:03.320Z,6.07
2023-03-26T02:02:10.308Z,6.08
2023-03-26T02:07:38.045Z,6.13
2023-03-26T02:12:42.603Z,6.17
2023-03-26T02:17:47.189Z,6.19
2023-03-26T02:22:50.185Z,6.22
2023-03-26T02:27:53.163Z,6.24
2023-03-26T02:32:59.359Z,6.23
2023-03-26T02:38:02.461Z,6.22
2023-03-26T02:43:05.388Z,6.21
2023-03-26T02:48:08.314Z,6.17
2023-03-26T02:53:12.036Z,6.15
2023-03-26T02:58:17.935Z,6.18
2023-03-26T03:03:25.775Z,6.23
2023-03-26T03:08:29.609Z,6.27
2023-03-26T03:13:32.555Z,6.32
2023-03-26T03:18:35.781Z,6.34
2023-03-26T03:23:38.594Z,6.33
2023-03-26T03:28:41.988Z,6.32
2023-03-26T03:33:46.423Z,6.34
2023-03-26T03:38:50.007Z,6.37
2023-03-26T03:43:52.907Z,6.42
2023-03-26T03:48:56.102Z,6.45
2023-03-26T03:53:58.970Z,6.47
2023-03-26T03:59:03.520Z,6.51
2023-03-26T04:04:06.453Z,6.54
2023-03-26T04:09:12.096Z,6.56
2023-03-26T04:14:14.951Z,6.56
2023-03-26T04:19:17.826Z,6.52
2023-03-26T04:24:22.492Z,6.50
2023-03-26T04:29:27.992Z,6.48
2023-03-26T04:34:31.063Z,6.46
2023-03-26T04:39:34.011Z,6.44
2023-03-26T04:44:36.858Z,6.44
2023-03-26T04:49:39.928Z,6.45
2023-03-26T04:54:44.308Z,6.45
2023-03-26T04:59:47.447Z,6.46
2023-03-26T05:04:50.884Z,6.46
2023-03-26T05:09:54.143Z,6.46
2023-03-26T05:14:57.004Z,6.45
2023-03-26T05:19:59.838Z,6.48
2023-03-26T05:25:06.353Z,6.52
2023-03-26T05:30:14.453Z,6.56
2023-03-26T05:35:17.953Z,6.64
2023-03-26T05:40:22.025Z,6.72
2023-03-26T05:45:25.620Z,6.77
2023-03-26T05:50:28.499Z,6.82
2023-03-26T05:55:33.501Z,6.89
2023-03-26T06:00:38.963Z,6.93
2023-03-26T06:05:43.011Z,7.01
2023-03-26T06:10:46.007Z,7.12
2023-03-26T06:15:48.889Z,7.25
2023-03-26T06:20:52.898Z,7.43
2023-03-26T06:25:56.268Z,7.62
2023-03-26T06:31:01.130Z,7.74
2023-03-26T06:36:04.831Z,7.75
2023-03-26T06:41:07.809Z,7.60
2023-03-26T06:46:13.361Z,7.37
2023-03-26T06:51:16.730Z,7.18
2023-03-26T06:56:19.677Z,7.01
2023-03-26T07:01:23.066Z,6.89
2023-03-26T07:06:26.615Z,6.81
2023-03-26T07:11:29.693Z,6.77
2023-03-26T07:16:32.833Z,6.82
2023-03-26T07:21:36.192Z,7.00
2023-03-26T07:26:57.219Z,7.19
2023-03-26T07:32:25.767Z,7.45
2023-03-26T07:37:47.968Z,7.58
2023-03-26T07:43:11.782Z,7.62
2023-03-26T07:48:29.716Z,7.87
2023-03-26T07:53:33.106Z,8.09
2023-03-26T07:58:45.349Z,8.23
2023-03-26T08:04:24.056Z,8.34
2023-03-26T08:10:01.902Z,8.35
2023-03-26T08:15:49.988Z,8.44
2023-03-26T08:21:08.066Z,8.47
2023-03-26T08:26:22.227Z,8.56
2023-03-26T08:31:51.959Z,8.71
2023-03-26T08:36:55.030Z,8.77
2023-03-26T08:42:24.049Z,8.88
2023-03-26T08:48:03.188Z,8.87
2023-03-26T08:53:33.041Z,8.89
2023-03-26T08:59:14.413Z,9.03
2023-03-26T09:04:40.443Z,9.36
2023-03-26T09:10:14.501Z,9.58
2023-03-26T09:16:01.355Z,9.51
2023-03-26T09:21:44.544Z,9.18
2023-03-26T09:27:18.907Z,8.89
2023-03-26T09:32:59.595Z,8.51
2023-03-26T09:38:14.895Z,8.69
2023-03-26T09:43:58.899Z,9.09
2023-03-26T09:49:35.400Z,9.46
2023-03-26T09:54:57.092Z,9.56
2023-03-26T10:00:32.026Z,9.40
2023-03-26T10:06:06.928Z,9.36
2023-03-26T10:11:33.730Z,9.37
2023-03-26T10:17:03.252Z,9.66
2023-03-26T10:22:32.067Z,9.97
2023-03-26T10:28:24.865Z,9.84
2023-03-26T10:34:28.747Z,9.54
2023-03-26T10:40:14.525Z,9.44
2023-03-26T10:45:41.770Z,9.67
2023-03-26T10:51:29.200Z,9.83
2023-03-26T10:56:45.420Z,9.64
2023-03-26T11:02:06.803Z,9.32
2023-03-26T11:07:22.474Z,8.47
2023-03-26T11:12:52.856Z,8.23
2023-03-26T11:18:18.943Z,8.36
2023-03-26T11:23:36.088Z,8.85
2023-03-26T11:29:30.956Z,9.68
2023-03-26T11:34:42.019Z,9.90
2023-03-26T11:39:50.954Z,10.57
2023-03-26T11:45:00.813Z,10.72
2023-03-26T11:50:05.187Z,10.73
2023-03-26T11:55:12.640Z,10.77
2023-03-26T12:00:19.441Z,11.16
2023-03-26T12:05:26.631Z,12.53
2023-03-26T12:10:35.070Z,12.69
2023-03-26T12:15:42.912Z,13.18
2023-03-26T12:20:45.847Z,15.95
2023-03-26T12:25:48.776Z,17.51
2023-03-26T12:31:02.924Z,16.21
2023-03-26T12:36:30.405Z,13.75
2023-03-26T12:44:42.183Z,12.85
2023-03-26T12:47:55.194Z,12.32
2023-03-26T12:52:54.015Z,11.68
2023-03-26T12:58:21.906Z,11.94
2023-03-26T13:03:46.963Z,13.92
2023-03-26T13:09:12.194Z,14.62
2023-03-26T13:15:27.487Z,12.78
2023-03-26T13:21:18.762Z,11.60
2023-03-26T13:26:46.765Z,10.89
2023-03-26T13:32:17.669Z,13.12
2023-03-26T13:38:08.293Z,17.95
2023-03-26T13:43:39.861Z,16.81
2023-03-26T13:49:01.964Z,14.55
2023-03-26T13:54:37.034Z,13.69
2023-03-26T13:59:52.197Z,13.21
2023-03-26T14:05:01.364Z,12.51
2023-03-26T14:10:07.445Z,11.83
2023-03-26T14:15:32.651Z,11.37
2023-03-26T14:21:26.160Z,13.02
2023-03-26T14:27:18.588Z,14.96
2023-03-26T14:32:47.167Z,17.84
2023-03-26T14:38:22.878Z,18.07
2023-03-26T14:44:06.724Z,20.59
2023-03-26T14:49:30.778Z,21.13
2023-03-26T14:54:37.860Z,20.65
2023-03-26T15:00:21.267Z,20.21
2023-03-26T15:06:03.076Z,21.85
2023-03-26T15:11:43.361Z,22.02
2023-03-26T15:17:12.853Z,18.92
2023-03-26T15:22:59.183Z,16.15
2023-03-26T16:27:40.163Z,10.42
2023-03-26T16:39:48.240Z,10.07
2023-03-26T16:45:20.482Z,9.94
2023-03-26T17:06:21.539Z,9.47
2023-03-26T17:20:17.327Z,9.08
2023-03-26T17:25:36.789Z,8.87
2023-03-26T17:30:58.295Z,8.80
2023-03-26T17:36:21.404Z,8.76
2023-03-26T17:42:13.099Z,8.66
2023-03-26T17:47:34.180Z,8.52
2023-03-26T17:52:57.477Z,8.42
2023-03-26T17:58:50.736Z,8.32
2023-03-26T18:20:50.205Z,7.47
2023-03-26T18:26:18.737Z,7.24
2023-03-26T18:31:26.387Z,7.02
2023-03-26T18:54:55.313Z,6.44
2023-03-26T19:00:47.413Z,6.38
2023-03-26T19:25:03.020Z,5.96
2023-03-26T19:30:07.672Z,5.84
2023-03-26T19:35:21.342Z,5.76
2023-03-26T19:40:31.981Z,5.68
2023-03-26T19:45:34.805Z,5.63
2023-03-26T19:50:42.213Z,5.57
2023-03-26T19:56:16.079Z,5.50
2023-03-26T20:01:27.482Z,5.42
2023-03-26T20:06:42.528Z,5.35
2023-03-26T20:11:47.238Z,5.32
2023-03-26T20:26:54.796Z,5.29
2023-03-26T20:47:27.617Z,5.19
2023-03-26T21:00:20.194Z,5.16
2023-03-26T21:05:25.905Z,5.14
2023-03-26T21:17:39.378Z,5.10
2023-03-26T21:23:26.393Z,5.12
2023-03-26T21:47:55.782Z,5.44
2023-03-26T22:02:10.534Z,5.42
2023-03-26T22:08:27.745Z,5.40
2023-03-26T22:20:12.736Z,5.31
2023-03-26T22:39:33.927Z,4.89
2023-03-26T22:44:37.275Z,4.80
2023-03-26T22:49:55.578Z,4.73
2023-03-26T23:01:10.771Z,4.53
2023-03-26T23:06:13.770Z,4.40
2023-03-26T23:11:18.751Z,4.31
2023-03-26T23:16:21.958Z,4.20
2023-03-26T23:21:25.723Z,4.10
2023-03-26T23:26:35.006Z,4.04
2023-03-26T23:31:42.491Z,3.97
2023-03-26T23:36:45.532Z,3.94
2023-03-26T23:41:48.500Z,3.93
2023-03-26T23:46:58.043Z,3.91
2023-03-26T23:52:01.031Z,3.88
2023-03-26T23:57:06.725Z,3.85
